createdAt,value
2022-08-26T00:02:31.943Z,72.30
2022-08-26T00:05:20.620Z,72.44
2022-08-26T00:08:13.021Z,72.36
2022-08-26T00:11:02.054Z,72.77
2022-08-26T00:13:50.639Z,72.81
2022-08-26T00:16:40.932Z,72.92
2022-08-26T00:19:36.061Z,72.74
2022-08-26T00:22:24.656Z,73.08
2022-08-26T00:25:16.067Z,73.41
2022-08-26T00:28:06.301Z,73.50
2022-08-26T00:30:55.984Z,74.04
2022-08-26T00:33:44.649Z,74.07
2022-08-26T00:36:33.177Z,74.00
2022-08-26T00:39:21.949Z,73.90
2022-08-26T00:42:12.058Z,74.55
2022-08-26T00:45:00.615Z,75.25
2022-08-26T00:47:51.201Z,75.39
2022-08-26T00:50:43.292Z,75.27
2022-08-26T00:53:34.446Z,76.30
2022-08-26T00:56:25.385Z,76.50
2022-08-26T00:59:17.184Z,76.84
2022-08-26T01:02:06.349Z,76.44
2022-08-26T01:04:58.068Z,77.10
2022-08-26T01:07:46.789Z,76.70
2022-08-26T01:10:35.398Z,77.06
2022-08-26T01:13:24.340Z,77.61
2022-08-26T01:16:16.850Z,77.21
2022-08-26T01:19:12.729Z,77.61
2022-08-26T01:22:03.904Z,78.10
2022-08-26T01:24:53.934Z,78.05
2022-08-26T01:27:43.354Z,78.07
2022-08-26T01:30:35.141Z,78.87
2022-08-26T01:33:26.535Z,79.34
2022-08-26T01:36:15.676Z,79.19
2022-08-26T01:39:05.834Z,79.13
2022-08-26T01:41:58.576Z,79.41
2022-08-26T01:44:54.077Z,79.43
2022-08-26T01:47:43.266Z,79.01
2022-08-26T01:50:34.149Z,79.03
2022-08-26T01:53:23.232Z,79.58
2022-08-26T01:56:13.005Z,79.39
2022-08-26T01:59:05.052Z,78.95
2022-08-26T02:01:54.444Z,79.14
2022-08-26T02:04:48.605Z,79.39
2022-08-26T02:07:39.724Z,79.77
2022-08-26T02:10:28.224Z,80.04
2022-08-26T02:13:16.801Z,80.66
2022-08-26T02:16:08.407Z,80.96
2022-08-26T02:18:58.568Z,81.21
2022-08-26T02:21:51.226Z,81.29
2022-08-26T02:24:49.386Z,81.70
2022-08-26T02:27:38.206Z,81.47
2022-08-26T02:30:28.789Z,82.67
2022-08-26T02:33:18.639Z,82.61
2022-08-26T02:36:08.042Z,82.77
2022-08-26T02:38:56.700Z,82.72
2022-08-26T02:41:46.866Z,83.15
2022-08-26T02:44:36.776Z,83.80
2022-08-26T02:47:25.487Z,83.47
2022-08-26T02:50:19.334Z,83.61
2022-08-26T02:53:08.284Z,83.69
2022-08-26T02:55:56.953Z,83.62
2022-08-26T02:58:48.664Z,84.26
2022-08-26T03:01:37.449Z,85.08
2022-08-26T03:04:26.123Z,85.02
2022-08-26T03:07:16.174Z,85.32
2022-08-26T03:10:08.718Z,84.86
2022-08-26T03:12:58.080Z,85.43
2022-08-26T03:15:47.641Z,86.50
2022-08-26T03:18:36.561Z,87.79
2022-08-26T03:21:25.083Z,88.23
2022-08-26T03:24:15.488Z,88.66
2022-08-26T03:27:05.973Z,88.25
2022-08-26T03:30:13.237Z,88.24
2022-08-26T03:33:03.555Z,88.87
2022-08-26T03:35:53.093Z,89.58
2022-08-26T03:38:41.666Z,90.10
2022-08-26T03:41:34.913Z,90.42
2022-08-26T03:44:23.408Z,90.15
2022-08-26T03:47:12.007Z,90.45
2022-08-26T03:50:00.869Z,90.48
2022-08-26T03:52:49.875Z,90.47
2022-08-26T03:55:38.723Z,90.34
2022-08-26T03:58:29.260Z,90.38
2022-08-26T04:01:17.828Z,90.60
2022-08-26T04:04:07.753Z,91.09
2022-08-26T04:06:58.439Z,91.43
2022-08-26T04:09:47.457Z,92.16
2022-08-26T04:12:37.221Z,91.78
2022-08-26T04:15:27.909Z,91.78
2022-08-26T04:18:16.809Z,92.83
2022-08-26T04:21:07.780Z,93.27
2022-08-26T04:23:58.340Z,93.05
2022-08-26T04:26:46.966Z,93.52
2022-08-26T04:29:35.508Z,93.79
2022-08-26T04:32:25.499Z,93.58
2022-08-26T04:35:14.012Z,93.99
2022-08-26T04:38:03.263Z,93.74
2022-08-26T04:40:54.354Z,93.86
2022-08-26T04:43:42.903Z,93.87
2022-08-26T04:46:31.456Z,94.16
2022-08-26T04:49:21.671Z,94.60
2022-08-26T04:52:10.261Z,94.35
2022-08-26T04:54:59.029Z,94.91
2022-08-26T04:57:47.886Z,95.48
2022-08-26T05:00:36.463Z,95.84
2022-08-26T05:03:27.345Z,96.20
2022-08-26T05:06:20.626Z,96.54
2022-08-26T05:09:10.777Z,96.59
2022-08-26T05:11:59.311Z,96.83
2022-08-26T05:14:47.828Z,96.53
2022-08-26T05:17:36.428Z,95.91
2022-08-26T05:20:26.211Z,96.09
2022-08-26T05:23:17.166Z,96.13
2022-08-26T05:26:09.687Z,96.17
2022-08-26T05:28:58.781Z,95.40
2022-08-26T05:31:47.355Z,95.80
2022-08-26T05:34:37.468Z,95.86
2022-08-26T05:37:26.867Z,95.68
2022-08-26T05:40:16.808Z,95.56
2022-08-26T05:43:10.448Z,95.24
2022-08-26T05:46:06.944Z,94.84
2022-08-26T05:48:55.844Z,93.71
2022-08-26T05:51:46.372Z,92.23
2022-08-26T05:54:36.397Z,90.51
2022-08-26T05:57:29.098Z,89.57
2022-08-26T06:00:18.211Z,89.61
2022-08-26T06:03:08.339Z,88.77
2022-08-26T06:05:56.931Z,88.06
2022-08-26T06:08:47.547Z,86.79
2022-08-26T06:11:36.148Z,85.82
2022-08-26T06:14:26.889Z,84.65
2022-08-26T06:17:15.454Z,85.52
2022-08-26T06:20:04.817Z,84.76
2022-08-26T06:23:11.339Z,83.06
2022-08-26T06:26:00.342Z,83.47
2022-08-26T06:28:48.852Z,82.21
2022-08-26T06:31:40.082Z,81.21
2022-08-26T06:34:30.372Z,79.90
2022-08-26T06:37:19.459Z,77.55
2022-08-26T06:40:11.434Z,74.94
2022-08-26T06:43:00.513Z,74.67
2022-08-26T06:45:49.288Z,73.84
2022-08-26T06:48:40.155Z,72.50
2022-08-26T06:51:30.963Z,70.34
2022-08-26T06:54:22.875Z,68.26
2022-08-26T06:57:11.774Z,66.44
2022-08-26T07:00:00.243Z,65.81
2022-08-26T07:02:49.144Z,64.95
2022-08-26T07:05:39.124Z,64.90
2022-08-26T07:08:27.707Z,64.94
2022-08-26T07:11:16.390Z,64.94
2022-08-26T07:14:06.046Z,63.58
2022-08-26T07:16:54.774Z,64.17
2022-08-26T07:19:44.341Z,62.45
2022-08-26T07:22:34.453Z,60.69
2022-08-26T07:25:23.057Z,60.38
2022-08-26T07:28:12.041Z,60.56
2022-08-26T07:31:05.261Z,60.82
2022-08-26T07:33:58.391Z,61.31
2022-08-26T07:36:46.988Z,61.21
2022-08-26T07:39:40.405Z,61.75
2022-08-26T07:42:29.089Z,61.33
2022-08-26T07:45:18.196Z,61.58
2022-08-26T07:48:07.497Z,62.02
2022-08-26T07:50:56.092Z,62.37
2022-08-26T07:53:44.804Z,61.15
2022-08-26T07:56:38.064Z,58.19
2022-08-26T07:59:28.319Z,57.73
2022-08-26T08:02:19.211Z,57.38
2022-08-26T08:05:08.433Z,56.16
2022-08-26T08:08:26.306Z,55.24
2022-08-26T08:11:05.918Z,54.96
2022-08-26T08:13:56.830Z,54.67
2022-08-26T08:16:46.871Z,54.78
2022-08-26T08:19:39.045Z,53.24
2022-08-26T08:22:27.881Z,52.36
2022-08-26T08:25:16.658Z,52.70
2022-08-26T08:28:05.428Z,52.85
2022-08-26T08:30:55.989Z,53.46
2022-08-26T08:33:44.504Z,53.59
2022-08-26T08:36:35.838Z,53.86
2022-08-26T08:39:24.976Z,52.49
2022-08-26T08:42:31.775Z,52.15
2022-08-26T08:45:23.842Z,51.99
2022-08-26T08:48:17.270Z,51.11
2022-08-26T08:51:13.380Z,50.58
2022-08-26T08:54:03.258Z,50.43
2022-08-26T08:56:54.742Z,50.83
2022-08-26T08:59:53.193Z,50.35
2022-08-26T09:02:48.663Z,49.33
2022-08-26T09:05:48.575Z,48.01
2022-08-26T09:08:37.494Z,48.06
2022-08-26T09:11:26.038Z,48.70
2022-08-26T09:14:14.608Z,48.01
2022-08-26T09:17:08.893Z,46.47
2022-08-26T09:20:07.112Z,46.34
2022-08-26T09:22:57.725Z,45.47
2022-08-26T09:25:48.587Z,45.78
2022-08-26T09:28:37.203Z,45.47
2022-08-26T09:31:27.682Z,45.45
2022-08-26T09:34:19.161Z,43.90
2022-08-26T09:37:08.801Z,43.85
2022-08-26T09:40:13.789Z,44.32
2022-08-26T09:43:11.958Z,44.27
2022-08-26T09:46:13.589Z,43.64
2022-08-26T09:49:24.390Z,43.31
2022-08-26T09:52:23.435Z,42.54
2022-08-26T09:55:17.092Z,43.15
2022-08-26T09:58:08.763Z,42.04
2022-08-26T10:01:01.398Z,42.45
2022-08-26T10:03:50.641Z,42.07
2022-08-26T10:06:42.387Z,41.88
2022-08-26T10:09:35.373Z,41.55
2022-08-26T10:12:25.449Z,40.74
2022-08-26T10:15:15.819Z,40.69
2022-08-26T10:18:09.490Z,39.55
2022-08-26T10:21:03.959Z,39.94
2022-08-26T10:23:54.604Z,39.69
2022-08-26T10:26:57.927Z,39.80
2022-08-26T10:29:49.900Z,39.59
2022-08-26T10:32:46.012Z,39.62
2022-08-26T10:35:36.692Z,39.36
2022-08-26T10:38:29.444Z,39.08
2022-08-26T10:41:21.941Z,39.09
2022-08-26T10:44:13.043Z,38.82
2022-08-26T10:47:10.318Z,39.12
2022-08-26T10:50:03.346Z,38.77
2022-08-26T10:53:00.145Z,38.68
2022-08-26T10:55:55.057Z,38.37
2022-08-26T10:58:53.995Z,37.60
2022-08-26T11:01:50.838Z,37.48
2022-08-26T11:04:48.317Z,37.11
2022-08-26T11:07:40.382Z,37.54
2022-08-26T11:11:04.141Z,36.98
2022-08-26T11:14:01.098Z,37.02
2022-08-26T11:16:51.889Z,36.26
2022-08-26T11:20:13.609Z,36.13
2022-08-26T11:23:36.193Z,35.21
2022-08-26T11:26:56.182Z,35.22
2022-08-26T11:30:01.988Z,35.15
2022-08-26T11:32:52.980Z,35.73
2022-08-26T11:35:50.891Z,36.18
2022-08-26T11:38:43.241Z,37.11
2022-08-26T11:41:32.448Z,36.25
2022-08-26T11:44:23.027Z,36.80
2022-08-26T11:47:14.728Z,37.14
2022-08-26T11:50:13.418Z,38.14
2022-08-26T11:53:06.257Z,37.04
2022-08-26T11:55:56.460Z,36.93
2022-08-26T11:58:46.624Z,36.35
2022-08-26T12:01:36.832Z,36.29
2022-08-26T12:04:29.177Z,35.16
2022-08-26T12:07:23.858Z,34.94
2022-08-26T12:10:29.516Z,34.33
2022-08-26T12:13:23.231Z,34.09
2022-08-26T12:16:13.571Z,34.29
2022-08-26T12:19:02.418Z,34.31
2022-08-26T12:21:51.020Z,34.00
2022-08-26T12:24:44.595Z,33.58
2022-08-26T12:27:39.758Z,33.46
2022-08-26T12:30:30.019Z,34.35
2022-08-26T12:33:22.713Z,33.33
2022-08-26T12:36:12.348Z,33.13
2022-08-26T12:39:09.339Z,32.87
2022-08-26T12:41:59.368Z,33.55
2022-08-26T12:44:53.805Z,33.32
2022-08-26T12:47:44.471Z,33.54
2022-08-26T12:50:35.192Z,33.68
2022-08-26T12:53:25.147Z,32.37
2022-08-26T12:56:23.252Z,32.76
2022-08-26T12:59:23.743Z,32.30
2022-08-26T13:02:36.571Z,32.77
2022-08-26T13:05:27.593Z,33.34
2022-08-26T13:08:17.986Z,33.52
2022-08-26T13:11:13.546Z,33.26
2022-08-26T13:14:06.904Z,33.25
2022-08-26T13:16:55.926Z,32.58
2022-08-26T13:19:45.860Z,32.62
2022-08-26T13:22:34.736Z,32.51
2022-08-26T13:25:23.458Z,32.75
2022-08-26T13:28:12.039Z,32.81
2022-08-26T13:31:00.656Z,32.73
2022-08-26T13:33:49.672Z,32.79
2022-08-26T13:36:39.925Z,32.87
2022-08-26T13:39:28.502Z,33.16
2022-08-26T13:42:17.051Z,32.94
2022-08-26T13:45:06.430Z,32.52
2022-08-26T13:47:55.012Z,31.68
2022-08-26T13:50:43.528Z,31.44
2022-08-26T13:53:33.505Z,31.83
2022-08-26T13:56:22.889Z,30.95
2022-08-26T13:59:11.487Z,31.11
2022-08-26T14:02:01.750Z,31.38
2022-08-26T14:04:50.313Z,32.35
2022-08-26T14:07:38.843Z,32.70
2022-08-26T14:10:29.130Z,34.26
2022-08-26T14:13:18.344Z,35.70
2022-08-26T14:16:10.209Z,37.01
2022-08-26T14:19:01.188Z,37.50
2022-08-26T14:21:50.899Z,37.30
2022-08-26T14:24:39.491Z,37.52
2022-08-26T14:27:29.415Z,37.68
2022-08-26T14:30:18.618Z,37.62
2022-08-26T14:33:07.183Z,37.67
2022-08-26T14:36:16.480Z,37.46
2022-08-26T14:39:07.564Z,37.65
2022-08-26T14:41:56.970Z,38.40
2022-08-26T14:44:49.586Z,38.23
2022-08-26T14:47:38.092Z,39.12
2022-08-26T14:50:30.693Z,39.12
2022-08-26T14:53:36.733Z,39.76
2022-08-26T14:56:25.657Z,39.71
2022-08-26T14:59:15.232Z,39.72
2022-08-26T15:02:05.517Z,40.08
2022-08-26T15:04:54.204Z,40.46
2022-08-26T15:07:42.951Z,40.12
2022-08-26T15:10:31.563Z,40.46
2022-08-26T15:13:20.170Z,40.39
2022-08-26T15:16:08.868Z,40.59
2022-08-26T15:18:59.245Z,41.36
2022-08-26T15:21:48.312Z,41.42
2022-08-26T15:24:36.972Z,41.91
2022-08-26T15:27:25.580Z,42.42
2022-08-26T15:30:16.501Z,42.57
2022-08-26T15:33:05.176Z,43.18
2022-08-26T15:35:55.744Z,43.54
2022-08-26T15:38:44.476Z,44.79
2022-08-26T15:41:34.880Z,45.16
2022-08-26T15:44:23.756Z,45.59
2022-08-26T15:47:12.588Z,45.80
2022-08-26T15:50:01.218Z,46.30
2022-08-26T15:52:51.134Z,46.40
2022-08-26T15:55:39.674Z,47.21
2022-08-26T15:58:29.702Z,47.18
2022-08-26T16:01:24.384Z,48.16
2022-08-26T16:04:17.535Z,48.12
2022-08-26T16:07:06.142Z,47.85
2022-08-26T16:09:56.730Z,47.70
2022-08-26T16:12:45.334Z,47.64
2022-08-26T16:15:34.383Z,47.96
2022-08-26T16:18:23.601Z,48.23
2022-08-26T16:21:16.853Z,48.12
2022-08-26T16:24:05.910Z,48.35
2022-08-26T16:26:55.860Z,48.77
2022-08-26T16:29:44.459Z,48.97
2022-08-26T16:32:33.062Z,48.73
2022-08-26T16:35:21.616Z,48.56
2022-08-26T16:38:10.977Z,49.06
2022-08-26T16:41:01.043Z,48.79
2022-08-26T16:43:51.480Z,49.13
2022-08-26T16:46:41.121Z,49.21
2022-08-26T16:49:29.786Z,50.39
2022-08-26T16:52:18.525Z,51.76
2022-08-26T16:55:09.016Z,54.42
2022-08-26T16:57:57.579Z,57.56
2022-08-26T17:00:47.573Z,62.12
2022-08-26T17:03:36.421Z,70.71
2022-08-26T17:06:25.041Z,78.50
2022-08-26T17:09:16.733Z,83.87
2022-08-26T17:12:05.986Z,88.85
2022-08-26T17:14:54.575Z,90.76
2022-08-26T17:17:44.593Z,86.88
2022-08-26T17:20:33.580Z,91.86
2022-08-26T17:23:23.104Z,100.00
2022-08-26T17:26:12.812Z,100.00
2022-08-26T17:29:01.685Z,100.00
2022-08-26T17:31:50.175Z,100.00
2022-08-26T17:34:40.103Z,100.00
2022-08-26T17:37:28.697Z,100.00
2022-08-26T17:40:19.552Z,100.00
2022-08-26T17:43:12.201Z,100.00
2022-08-26T17:46:06.707Z,100.00
2022-08-26T17:48:56.295Z,100.00
2022-08-26T17:51:46.392Z,100.00
2022-08-26T17:54:34.901Z,100.00
2022-08-26T17:57:23.448Z,100.00
2022-08-26T18:00:15.461Z,100.00
2022-08-26T18:03:04.170Z,100.00
2022-08-26T18:05:53.443Z,100.00
2022-08-26T18:08:43.982Z,100.00
2022-08-26T18:11:34.283Z,100.00
2022-08-26T18:14:22.878Z,100.00
2022-08-26T18:17:11.464Z,100.00
2022-08-26T18:20:04.030Z,100.00
2022-08-26T18:22:52.635Z,100.00
2022-08-26T18:25:43.503Z,100.00
2022-08-26T18:28:32.221Z,100.00
2022-08-26T18:31:21.096Z,100.00
2022-08-26T18:34:12.765Z,100.00
2022-08-26T18:37:01.401Z,100.00
2022-08-26T18:39:50.036Z,100.00
2022-08-26T18:42:41.256Z,100.00
2022-08-26T18:45:29.833Z,100.00
2022-08-26T18:48:18.362Z,100.00
2022-08-26T18:51:07.245Z,100.00
2022-08-26T18:54:03.018Z,100.00
2022-08-26T18:56:51.735Z,100.00
2022-08-26T18:59:41.912Z,100.00
2022-08-26T19:02:30.712Z,100.00
2022-08-26T19:05:19.735Z,100.00
2022-08-26T19:08:08.765Z,100.00
2022-08-26T19:10:57.416Z,100.00
2022-08-26T19:13:46.404Z,100.00
2022-08-26T19:16:39.121Z,100.00
2022-08-26T19:19:27.719Z,100.00
2022-08-26T19:22:16.363Z,100.00
2022-08-26T19:25:05.402Z,100.00
2022-08-26T19:27:53.959Z,100.00
2022-08-26T19:30:44.230Z,100.00
2022-08-26T19:33:34.238Z,100.00
2022-08-26T19:36:24.737Z,100.00
2022-08-26T19:39:13.348Z,100.00
2022-08-26T19:42:01.923Z,100.00
2022-08-26T19:45:24.924Z,100.00
2022-08-26T19:48:14.194Z,100.00
2022-08-26T19:51:04.322Z,100.00
2022-08-26T19:53:54.255Z,100.00
2022-08-26T19:56:45.864Z,100.00
2022-08-26T19:59:37.322Z,100.00
2022-08-26T20:02:25.942Z,100.00
2022-08-26T20:05:16.122Z,100.00
2022-08-26T20:08:06.090Z,100.00
2022-08-26T20:10:55.184Z,100.00
2022-08-26T20:13:44.943Z,100.00
2022-08-26T20:16:33.796Z,100.00
2022-08-26T20:19:40.022Z,100.00
2022-08-26T20:22:28.857Z,100.00
2022-08-26T20:25:19.087Z,100.00
2022-08-26T20:28:07.651Z,100.00
2022-08-26T20:30:56.233Z,100.00
2022-08-26T20:33:46.326Z,100.00
2022-08-26T20:36:35.316Z,100.00
2022-08-26T20:39:23.906Z,100.00
2022-08-26T20:42:20.116Z,100.00
2022-08-26T20:45:11.913Z,100.00
2022-08-26T20:48:00.657Z,100.00
2022-08-26T20:50:49.222Z,100.00
2022-08-26T20:53:37.752Z,100.00
2022-08-26T20:56:26.670Z,100.00
2022-08-26T20:59:17.023Z,100.00
2022-08-26T21:02:05.559Z,100.00
2022-08-26T21:04:54.416Z,100.00
2022-08-26T21:07:43.016Z,100.00
2022-08-26T21:10:32.030Z,100.00
2022-08-26T21:13:21.411Z,100.00
2022-08-26T21:16:11.909Z,100.00
2022-08-26T21:19:00.711Z,100.00
2022-08-26T21:21:49.692Z,100.00
2022-08-26T21:24:38.282Z,100.00
2022-08-26T21:27:26.899Z,100.00
2022-08-26T21:30:17.121Z,100.00
2022-08-26T21:33:07.485Z,100.00
2022-08-26T21:35:56.959Z,100.00
2022-08-26T21:38:45.723Z,100.00
2022-08-26T21:41:34.381Z,100.00
2022-08-26T21:44:22.952Z,100.00
2022-08-26T21:47:11.446Z,100.00
2022-08-26T21:50:03.590Z,100.00
2022-08-26T21:52:52.140Z,100.00
2022-08-26T21:55:42.204Z,100.00
2022-08-26T21:58:30.791Z,100.00
2022-08-26T22:01:21.708Z,100.00
2022-08-26T22:04:11.086Z,100.00
2022-08-26T22:07:00.999Z,100.00
2022-08-26T22:09:49.735Z,100.00
2022-08-26T22:12:38.669Z,100.00
2022-08-26T22:15:27.844Z,100.00
2022-08-26T22:18:17.454Z,100.00
2022-08-26T22:21:09.174Z,100.00
2022-08-26T22:23:59.698Z,100.00
2022-08-26T22:26:48.954Z,100.00
2022-08-26T22:29:37.856Z,100.00
2022-08-26T22:32:26.451Z,100.00
2022-08-26T22:35:29.337Z,100.00
2022-08-26T22:38:18.571Z,100.00
2022-08-26T22:41:09.752Z,100.00
2022-08-26T22:43:58.410Z,100.00
2022-08-26T22:46:47.751Z,100.00
2022-08-26T22:49:36.367Z,100.00
2022-08-26T22:52:24.869Z,100.00
2022-08-26T22:55:13.380Z,100.00
2022-08-26T22:58:03.486Z,100.00
2022-08-26T23:00:52.420Z,100.00
2022-08-26T23:03:44.381Z,100.00
2022-08-26T23:06:33.059Z,100.00
2022-08-26T23:09:21.763Z,100.00
2022-08-26T23:12:10.351Z,100.00
2022-08-26T23:15:00.306Z,100.00
2022-08-26T23:17:55.895Z,100.00
2022-08-26T23:20:47.659Z,100.00
2022-08-26T23:23:36.315Z,100.00
2022-08-26T23:26:24.859Z,100.00
2022-08-26T23:29:15.525Z,100.00
2022-08-26T23:32:05.805Z,100.00
2022-08-26T23:34:58.630Z,100.00
2022-08-26T23:37:48.529Z,100.00
2022-08-26T23:40:41.555Z,100.00
2022-08-26T23:43:31.119Z,100.00
2022-08-26T23:46:21.637Z,100.00
2022-08-26T23:49:15.809Z,100.00
2022-08-26T23:52:24.168Z,100.00
2022-08-26T23:55:15.291Z,100.00
2022-08-26T23:58:05.081Z,100.00
